createdAt,value
2024-02-06T00:00:18.283Z,28.6660
2024-02-06T00:01:20.511Z,28.6840
2024-02-06T00:02:22.583Z,28.6990
2024-02-06T00:03:24.618Z,28.6760
2024-02-06T00:04:26.755Z,28.6490
2024-02-06T00:05:28.834Z,28.6820
2024-02-06T00:06:30.980Z,28.6600
2024-02-06T00:07:36.156Z,28.6760
2024-02-06T00:08:35.674Z,28.6710
2024-02-06T00:09:37.673Z,28.6540
2024-02-06T00:10:39.901Z,28.6090
2024-02-06T00:11:42.102Z,28.6520
2024-02-06T00:12:44.222Z,28.6200
2024-02-06T00:13:46.375Z,28.5930
2024-02-06T00:14:46.447Z,28.6040
2024-02-06T00:15:48.623Z,28.5750
2024-02-06T00:16:50.793Z,28.5750
2024-02-06T00:17:53.065Z,28.5700
2024-02-06T00:18:55.266Z,28.5750
2024-02-06T00:19:57.480Z,28.5820
2024-02-06T00:20:59.552Z,28.5640
2024-02-06T00:22:01.812Z,28.5820
2024-02-06T00:23:04.003Z,28.5700
2024-02-06T00:24:06.246Z,28.5690
2024-02-06T00:25:08.585Z,28.5430
2024-02-06T00:26:10.692Z,28.5430
2024-02-06T00:27:12.914Z,28.4630
2024-02-06T00:28:15.169Z,28.5020
2024-02-06T00:29:17.347Z,28.5180
2024-02-06T00:30:19.579Z,28.5320
2024-02-06T00:31:19.619Z,28.4650
2024-02-06T00:32:21.776Z,28.4420
2024-02-06T00:33:24.042Z,28.4980
2024-02-06T00:34:26.163Z,28.4220
2024-02-06T00:35:28.238Z,28.4300
2024-02-06T00:36:30.229Z,28.4470
2024-02-06T00:37:32.342Z,28.4760
2024-02-06T00:38:34.444Z,28.4530
2024-02-06T00:39:36.568Z,28.4470
2024-02-06T00:40:38.808Z,28.4580
2024-02-06T00:41:40.828Z,28.4440
2024-02-06T00:42:42.934Z,28.3740
2024-02-06T00:43:45.112Z,28.3740
2024-02-06T00:44:47.149Z,28.3900
2024-02-06T00:45:49.248Z,28.4050
2024-02-06T00:46:51.358Z,28.3750
2024-02-06T00:47:53.719Z,28.3700
2024-02-06T00:48:55.955Z,28.3470
2024-02-06T00:49:58.074Z,28.3540
2024-02-06T00:51:00.315Z,28.3650
2024-02-06T00:52:02.349Z,28.3750
2024-02-06T00:53:04.532Z,28.3650
2024-02-06T00:54:06.703Z,28.3810
2024-02-06T00:55:09.031Z,28.3960
2024-02-06T00:56:11.116Z,28.3690
2024-02-06T00:57:13.281Z,28.3690
2024-02-06T00:58:15.577Z,28.3750
2024-02-06T00:59:15.549Z,28.3590
2024-02-06T01:00:17.732Z,28.3200
2024-02-06T01:01:20.097Z,28.3210
2024-02-06T01:02:22.156Z,28.3040
2024-02-06T01:03:24.408Z,28.3090
2024-02-06T01:04:26.739Z,28.2860
2024-02-06T01:05:28.856Z,28.3090
2024-02-06T01:06:31.183Z,28.2980
2024-02-06T01:07:33.564Z,28.3040
2024-02-06T01:08:35.704Z,28.2750
2024-02-06T01:09:37.948Z,28.2860
2024-02-06T01:10:38.279Z,28.2590
2024-02-06T01:11:40.385Z,28.2750
2024-02-06T01:12:42.661Z,28.2810
2024-02-06T01:13:44.976Z,28.2370
2024-02-06T01:14:47.119Z,28.2420
2024-02-06T01:15:49.379Z,28.2140
2024-02-06T01:16:51.746Z,28.2140
2024-02-06T01:17:53.908Z,28.2290
2024-02-06T01:18:56.251Z,28.2630
2024-02-06T01:19:58.482Z,28.2180
2024-02-06T01:21:00.650Z,28.2240
2024-02-06T01:22:02.937Z,28.1730
2024-02-06T01:23:05.093Z,28.1990
2024-02-06T01:24:07.350Z,28.1990
2024-02-06T01:25:09.538Z,28.1940
2024-02-06T01:26:11.752Z,28.1570
2024-02-06T01:27:11.857Z,28.1840
2024-02-06T01:28:14.111Z,28.1990
2024-02-06T01:29:16.279Z,28.2080
2024-02-06T01:30:21.364Z,28.1670
2024-02-06T01:31:20.725Z,28.1380
2024-02-06T01:32:22.918Z,28.1460
2024-02-06T01:33:25.158Z,28.1330
2024-02-06T01:34:27.450Z,28.1060
2024-02-06T01:35:29.545Z,28.1440
2024-02-06T01:36:31.735Z,28.1380
2024-02-06T01:37:33.958Z,28.1570
2024-02-06T01:38:36.200Z,28.1290
2024-02-06T01:39:38.403Z,28.1440
2024-02-06T01:40:40.714Z,28.1380
2024-02-06T01:41:40.733Z,28.1070
2024-02-06T01:42:43.011Z,28.1520
2024-02-06T01:43:45.255Z,28.1350
2024-02-06T01:44:47.441Z,28.1350
2024-02-06T01:45:49.657Z,28.1290
2024-02-06T01:46:51.890Z,28.1510
2024-02-06T01:47:54.185Z,28.1400
2024-02-06T01:48:56.364Z,28.0960
2024-02-06T01:49:58.624Z,28.0520
2024-02-06T01:51:00.682Z,28.0350
2024-02-06T01:52:02.936Z,28.0680
2024-02-06T01:53:05.093Z,28.0520
2024-02-06T01:54:07.308Z,28.0720
2024-02-06T01:55:07.467Z,28.0440
2024-02-06T01:56:09.661Z,28.0490
2024-02-06T01:57:11.900Z,28.0340
2024-02-06T01:58:14.181Z,28.0110
2024-02-06T01:59:16.379Z,28.0560
2024-02-06T02:00:18.609Z,28.0710
2024-02-06T02:01:20.945Z,28.0370
2024-02-06T02:02:23.135Z,28.0320
2024-02-06T02:03:25.366Z,28.0370
2024-02-06T02:04:27.911Z,28.0440
2024-02-06T02:06:13.079Z,28.0610
2024-02-06T02:07:15.053Z,28.0750
2024-02-06T02:08:17.085Z,28.0250
2024-02-06T02:09:19.352Z,28.0310
2024-02-06T02:10:21.490Z,28.0320
2024-02-06T02:11:23.676Z,27.9990
2024-02-06T02:12:25.866Z,28.0260
2024-02-06T02:13:26.081Z,28.0160
2024-02-06T02:14:28.217Z,28.0320
2024-02-06T02:15:30.423Z,28.0050
2024-02-06T02:16:32.709Z,27.9400
2024-02-06T02:17:34.854Z,27.9760
2024-02-06T02:18:37.179Z,27.9820
2024-02-06T02:19:39.317Z,27.9940
2024-02-06T02:20:41.388Z,27.9710
2024-02-06T02:21:43.551Z,27.9760
2024-02-06T02:22:45.835Z,27.9500
2024-02-06T02:23:47.944Z,27.9820
2024-02-06T02:24:50.144Z,27.9600
2024-02-06T02:25:52.324Z,27.9440
2024-02-06T02:26:54.505Z,27.9600
2024-02-06T02:27:56.727Z,27.9120
2024-02-06T02:28:58.901Z,27.9290
2024-02-06T02:30:01.111Z,27.9120
2024-02-06T02:31:03.232Z,27.9380
2024-02-06T02:32:05.292Z,27.9330
2024-02-06T02:33:07.574Z,27.9450
2024-02-06T02:34:09.685Z,27.9150
2024-02-06T02:35:11.804Z,27.9550
2024-02-06T02:36:13.919Z,27.9440
2024-02-06T02:37:16.176Z,27.9380
2024-02-06T02:38:18.237Z,27.9210
2024-02-06T02:39:20.384Z,27.8840
2024-02-06T02:40:22.563Z,27.8900
2024-02-06T02:41:24.708Z,27.9190
2024-02-06T02:42:26.825Z,27.9300
2024-02-06T02:43:29.038Z,27.8300
2024-02-06T02:44:31.107Z,27.8530
2024-02-06T02:45:33.271Z,27.8470
2024-02-06T02:46:35.665Z,27.8290
2024-02-06T02:47:37.708Z,27.8650
2024-02-06T02:48:39.906Z,27.8770
2024-02-06T02:49:42.117Z,27.8770
2024-02-06T02:50:44.149Z,27.8450
2024-02-06T02:51:46.338Z,27.8230
2024-02-06T02:52:48.522Z,27.8430
2024-02-06T02:53:50.694Z,27.8490
2024-02-06T02:54:52.891Z,27.8690
2024-02-06T02:55:55.036Z,27.8530
2024-02-06T02:56:57.245Z,27.8220
2024-02-06T02:57:59.382Z,27.8090
2024-02-06T02:59:01.568Z,27.7980
2024-02-06T03:00:03.734Z,27.8090
2024-02-06T03:01:05.962Z,27.8250
2024-02-06T03:02:08.155Z,27.8250
2024-02-06T03:03:10.297Z,27.8590
2024-02-06T03:04:12.445Z,27.8310
2024-02-06T03:05:14.683Z,27.8250
2024-02-06T03:06:16.933Z,27.8330
2024-02-06T03:07:19.065Z,27.8280
2024-02-06T03:08:18.954Z,27.8330
2024-02-06T03:09:21.147Z,27.8370
2024-02-06T03:10:23.356Z,27.8220
2024-02-06T03:11:25.465Z,27.7670
2024-02-06T03:12:27.657Z,27.8220
2024-02-06T03:13:29.893Z,27.8330
2024-02-06T03:14:32.006Z,27.8200
2024-02-06T03:15:34.227Z,27.8140
2024-02-06T03:16:36.479Z,27.8030
2024-02-06T03:17:38.625Z,27.8140
2024-02-06T03:18:40.818Z,27.8200
2024-02-06T03:19:43.089Z,27.8070
2024-02-06T03:20:45.230Z,27.8340
2024-02-06T03:21:47.409Z,27.8290
2024-02-06T03:22:49.642Z,30.2780
2024-02-06T03:23:51.934Z,29.9580
2024-02-06T03:24:54.101Z,29.0580
2024-02-06T03:25:56.245Z,28.4620
2024-02-06T03:26:58.458Z,28.3950
2024-02-06T03:28:00.763Z,28.4100
2024-02-06T03:29:00.764Z,28.3680
2024-02-06T03:30:02.973Z,28.3450
2024-02-06T03:31:05.212Z,28.2570
2024-02-06T03:32:07.413Z,28.2280
2024-02-06T03:33:09.718Z,28.2010
2024-02-06T03:34:11.992Z,28.1780
2024-02-06T03:35:13.994Z,28.1230
2024-02-06T03:36:16.117Z,28.1100
2024-02-06T03:37:18.347Z,28.0400
2024-02-06T03:38:20.544Z,28.0060
2024-02-06T03:39:22.845Z,28.0340
2024-02-06T03:40:25.011Z,28.0000
2024-02-06T03:41:27.197Z,28.0060
2024-02-06T03:42:29.480Z,28.0000
2024-02-06T03:43:29.661Z,27.9790
2024-02-06T03:44:31.776Z,27.8840
2024-02-06T03:45:33.973Z,27.8840
2024-02-06T03:46:36.290Z,27.8840
2024-02-06T03:47:38.514Z,27.8730
2024-02-06T03:48:40.820Z,27.8620
2024-02-06T03:49:42.980Z,27.8530
2024-02-06T03:50:45.231Z,27.8470
2024-02-06T03:51:47.465Z,27.8860
2024-02-06T03:52:49.713Z,27.8080
2024-02-06T03:53:51.992Z,27.8470
2024-02-06T03:54:52.169Z,27.7640
2024-02-06T03:55:54.228Z,27.8420
2024-02-06T03:56:56.389Z,27.6870
2024-02-06T03:57:58.623Z,27.7370
2024-02-06T03:59:00.812Z,27.8140
2024-02-06T04:00:02.984Z,27.7580
2024-02-06T04:01:05.281Z,27.7360
2024-02-06T04:02:07.421Z,27.7180
2024-02-06T04:03:09.553Z,27.7150
2024-02-06T04:04:14.024Z,27.6970
2024-02-06T04:05:14.023Z,27.6650
2024-02-06T04:06:16.209Z,27.6970
2024-02-06T04:07:18.601Z,27.6760
2024-02-06T04:08:20.661Z,27.6260
2024-02-06T04:09:22.929Z,27.6420
2024-02-06T04:10:25.205Z,27.6360
2024-02-06T04:11:27.364Z,27.6140
2024-02-06T04:12:29.624Z,27.6250
2024-02-06T04:13:31.960Z,27.6580
2024-02-06T04:14:34.075Z,27.6200
2024-02-06T04:15:36.342Z,27.6150
2024-02-06T04:16:38.680Z,29.2000
2024-02-06T04:17:40.809Z,31.8810
2024-02-06T04:18:43.040Z,31.3880
2024-02-06T04:19:45.318Z,30.8540
2024-02-06T04:20:47.396Z,30.6590
2024-02-06T04:21:49.590Z,30.6990
2024-02-06T04:22:51.784Z,30.7530
2024-02-06T04:23:51.921Z,30.7150
2024-02-06T04:24:54.104Z,30.6330
2024-02-06T04:25:56.253Z,30.5940
2024-02-06T04:26:58.416Z,30.5750
2024-02-06T04:28:00.686Z,30.5410
2024-02-06T04:29:02.781Z,30.5410
2024-02-06T04:30:05.031Z,30.4880
2024-02-06T04:31:07.209Z,26.9310
2024-02-06T04:32:09.487Z,26.4190
2024-02-06T04:33:11.769Z,27.0670
2024-02-06T04:34:14.081Z,28.0090
2024-02-06T04:35:16.314Z,28.5080
2024-02-06T04:36:18.447Z,28.9640
2024-02-06T04:37:20.690Z,29.2920
2024-02-06T04:38:20.792Z,29.3090
2024-02-06T04:39:23.039Z,29.3540
2024-02-06T04:40:25.350Z,29.3750
2024-02-06T04:41:27.558Z,29.3110
2024-02-06T04:42:29.748Z,29.2700
2024-02-06T04:43:31.971Z,29.2540
2024-02-06T04:44:34.154Z,29.2490
2024-02-06T04:45:36.405Z,29.2020
2024-02-06T04:46:37.455Z,29.4840
2024-02-06T04:47:38.587Z,29.6350
2024-02-06T04:48:40.812Z,29.7140
2024-02-06T04:49:43.306Z,29.9330
2024-02-06T04:50:45.217Z,30.2010
2024-02-06T04:51:47.435Z,30.1510
2024-02-06T04:52:49.710Z,30.3020
2024-02-06T04:53:49.720Z,30.2990
2024-02-06T04:54:52.081Z,30.2760
2024-02-06T04:55:54.166Z,30.2370
2024-02-06T04:56:56.383Z,30.2650
2024-02-06T04:57:58.593Z,30.2880
2024-02-06T04:59:00.784Z,30.1600
2024-02-06T05:00:02.994Z,30.0860
2024-02-06T05:01:05.276Z,30.0800
2024-02-06T05:02:07.453Z,30.1120
2024-02-06T05:03:09.603Z,30.0280
2024-02-06T05:04:11.883Z,29.9730
2024-02-06T05:05:14.110Z,30.0130
2024-02-06T05:06:16.314Z,29.9600
2024-02-06T05:07:18.627Z,29.9210
2024-02-06T05:08:20.659Z,29.8690
2024-02-06T05:09:20.724Z,29.8950
2024-02-06T05:10:22.995Z,29.8300
2024-02-06T05:11:25.171Z,29.8750
2024-02-06T05:12:27.368Z,29.8700
2024-02-06T05:13:29.558Z,29.8500
2024-02-06T05:14:31.667Z,29.8400
2024-02-06T05:15:33.893Z,29.8010
2024-02-06T05:16:36.199Z,29.8130
2024-02-06T05:17:38.418Z,29.8130
2024-02-06T05:18:40.673Z,29.7810
2024-02-06T05:19:43.050Z,29.7630
2024-02-06T05:20:45.042Z,29.7570
2024-02-06T05:21:47.277Z,29.7910
2024-02-06T05:22:49.457Z,29.7970
2024-02-06T05:24:41.105Z,29.9220
2024-02-06T05:25:41.193Z,29.8280
2024-02-06T05:26:43.316Z,29.7810
2024-02-06T05:27:45.555Z,29.7970
2024-02-06T05:28:47.767Z,29.8350
2024-02-06T05:29:49.975Z,29.8240
2024-02-06T05:30:52.184Z,29.8010
2024-02-06T05:31:54.344Z,29.7940
2024-02-06T05:32:56.546Z,29.8060
2024-02-06T05:33:58.795Z,29.8060
2024-02-06T05:35:01.008Z,29.8290
2024-02-06T05:36:03.137Z,29.8540
2024-02-06T05:37:05.396Z,29.8480
2024-02-06T05:38:07.585Z,29.8330
2024-02-06T05:39:09.758Z,29.8040
2024-02-06T05:40:12.136Z,29.7580
2024-02-06T05:41:14.189Z,29.7120
2024-02-06T05:42:16.373Z,29.6830
2024-02-06T05:43:16.506Z,29.6590
2024-02-06T05:44:18.672Z,29.6300
2024-02-06T05:45:20.884Z,29.5750
2024-02-06T05:46:23.088Z,29.5760
2024-02-06T05:47:25.292Z,29.5380
2024-02-06T05:48:27.495Z,29.5060
2024-02-06T05:49:29.774Z,29.4690
2024-02-06T05:50:32.196Z,29.4290
2024-02-06T05:51:34.096Z,29.4150
2024-02-06T05:52:36.443Z,29.3870
2024-02-06T05:53:48.814Z,29.3970
2024-02-06T05:54:48.220Z,29.4840
2024-02-06T05:55:50.390Z,29.5670
2024-02-06T05:56:52.545Z,29.6040
2024-02-06T05:57:54.895Z,29.4030
2024-02-06T05:58:56.975Z,29.2900
2024-02-06T05:59:59.098Z,29.6660
2024-02-06T06:01:01.477Z,30.0230
2024-02-06T06:02:03.628Z,30.2230
2024-02-06T06:03:05.749Z,30.2610
2024-02-06T06:04:08.170Z,30.2290
2024-02-06T06:05:10.387Z,30.2940
2024-02-06T06:06:12.605Z,30.3630
2024-02-06T06:07:14.777Z,30.3750
2024-02-06T06:08:16.950Z,30.4040
2024-02-06T06:09:19.254Z,30.4480
2024-02-06T06:10:21.515Z,30.4990
2024-02-06T06:11:21.552Z,30.5650
2024-02-06T06:12:23.814Z,30.5920
2024-02-06T06:13:26.144Z,30.6390
2024-02-06T06:14:28.412Z,30.7000
2024-02-06T06:15:28.516Z,30.7380
2024-02-06T06:16:30.804Z,30.7360
2024-02-06T06:17:33.124Z,30.6960
2024-02-06T06:18:35.332Z,30.7440
2024-02-06T06:19:35.579Z,30.7620
2024-02-06T06:20:37.702Z,30.7800
2024-02-06T06:21:43.567Z,30.7620
2024-02-06T06:22:42.293Z,30.7670
2024-02-06T06:23:44.478Z,30.7840
2024-02-06T06:24:46.843Z,30.7740
2024-02-06T06:25:49.028Z,30.7730
2024-02-06T06:26:51.271Z,30.8440
2024-02-06T06:27:51.383Z,30.8530
2024-02-06T06:28:53.649Z,30.8550
2024-02-06T06:29:55.922Z,30.8550
2024-02-06T06:30:58.177Z,30.8620
2024-02-06T06:31:58.264Z,30.9130
2024-02-06T06:33:00.608Z,30.9510
2024-02-06T06:34:02.872Z,30.9480
2024-02-06T06:35:05.145Z,31.0400
2024-02-06T06:36:07.182Z,31.1830
2024-02-06T06:37:07.285Z,31.2930
2024-02-06T06:38:09.440Z,31.3490
2024-02-06T06:39:11.666Z,31.3870
2024-02-06T06:40:13.975Z,31.3820
2024-02-06T06:41:16.168Z,31.3930
2024-02-06T06:42:18.443Z,31.4190
2024-02-06T06:43:20.743Z,31.3990
2024-02-06T06:44:22.929Z,31.3860
2024-02-06T06:45:25.236Z,31.3490
2024-02-06T06:46:27.501Z,31.3380
2024-02-06T06:47:29.742Z,31.3450
2024-02-06T06:48:32.019Z,31.3230
2024-02-06T06:49:34.273Z,31.3180
2024-02-06T06:50:36.363Z,31.2940
2024-02-06T06:51:38.550Z,31.2670
2024-02-06T06:52:40.889Z,31.2570
2024-02-06T06:53:43.001Z,31.1670
2024-02-06T06:54:45.320Z,31.2880
2024-02-06T06:55:47.556Z,31.2450
2024-02-06T06:56:49.688Z,31.2860
2024-02-06T06:57:51.902Z,31.3080
2024-02-06T06:58:54.132Z,31.3290
2024-02-06T06:59:56.351Z,31.3570
2024-02-06T07:00:58.721Z,31.3300
2024-02-06T07:02:00.913Z,31.3450
2024-02-06T07:03:00.926Z,31.3450
2024-02-06T07:04:03.118Z,31.3870
2024-02-06T07:05:05.464Z,31.4210
2024-02-06T07:06:07.653Z,31.4420
2024-02-06T07:07:09.833Z,31.4380
2024-02-06T07:08:09.833Z,31.3680
2024-02-06T07:09:12.051Z,31.3910
2024-02-06T07:10:14.304Z,31.4150
2024-02-06T07:11:16.545Z,31.4210
2024-02-06T07:12:18.682Z,31.4420
2024-02-06T07:13:18.817Z,31.4390
2024-02-06T07:14:21.015Z,31.4740
2024-02-06T07:15:23.353Z,31.4640
2024-02-06T07:16:25.596Z,31.4420
2024-02-06T07:17:25.646Z,31.4530
2024-02-06T07:18:28.006Z,31.4420
2024-02-06T07:19:30.326Z,31.4420
2024-02-06T07:20:32.396Z,31.4300
2024-02-06T07:21:34.687Z,31.4590
2024-02-06T07:22:37.027Z,31.4380
2024-02-06T07:23:39.180Z,31.4470
2024-02-06T07:24:41.435Z,31.4660
2024-02-06T07:25:43.760Z,31.4270
2024-02-06T07:26:45.894Z,31.4180
2024-02-06T07:27:48.028Z,31.4130
2024-02-06T07:28:50.346Z,31.4500
2024-02-06T07:29:52.521Z,31.4280
2024-02-06T07:30:52.692Z,31.4600
2024-02-06T07:31:54.875Z,31.4540
2024-02-06T07:32:57.094Z,31.4600
2024-02-06T07:33:59.382Z,31.4380
2024-02-06T07:35:01.864Z,31.4700
2024-02-06T07:36:03.714Z,31.3380
2024-02-06T07:37:05.993Z,31.3200
2024-02-06T07:38:09.037Z,31.2310
2024-02-06T07:39:10.405Z,31.2190
2024-02-06T07:40:12.679Z,31.2200
2024-02-06T07:41:14.864Z,31.1770
2024-02-06T07:42:17.086Z,31.1000
2024-02-06T07:43:20.812Z,31.0460
2024-02-06T07:44:19.369Z,30.9630
2024-02-06T07:45:21.577Z,30.8920
2024-02-06T07:46:23.825Z,30.8620
2024-02-06T07:47:26.087Z,30.7790
2024-02-06T07:48:28.324Z,30.6420
2024-02-06T07:49:28.391Z,30.5450
2024-02-06T07:50:30.540Z,30.4980
2024-02-06T07:51:32.720Z,30.3450
2024-02-06T07:52:35.028Z,30.2300
2024-02-06T07:53:37.162Z,30.2080
2024-02-06T07:54:37.268Z,30.1140
2024-02-06T07:55:39.586Z,30.0610
2024-02-06T07:56:41.725Z,29.9230
2024-02-06T07:57:43.976Z,29.9160
2024-02-06T07:58:46.249Z,29.8970
2024-02-06T07:59:48.448Z,29.7610
2024-02-06T08:00:50.764Z,29.7350
2024-02-06T08:01:53.096Z,29.6900
2024-02-06T08:02:53.152Z,29.5930
2024-02-06T08:03:55.444Z,29.6270
2024-02-06T08:04:57.736Z,29.5320
2024-02-06T08:05:59.981Z,29.4430
2024-02-06T08:07:02.140Z,29.3740
2024-02-06T08:08:04.263Z,29.3110
2024-02-06T08:09:06.414Z,29.2450
2024-02-06T08:10:08.658Z,29.2260
2024-02-06T08:11:10.830Z,29.1840
2024-02-06T08:12:13.039Z,29.1360
2024-02-06T08:13:15.290Z,29.1180
2024-02-06T08:14:17.406Z,29.0450
2024-02-06T08:15:19.621Z,29.0340
2024-02-06T08:16:21.836Z,29.0220
2024-02-06T08:17:21.902Z,28.9900
2024-02-06T08:18:24.303Z,28.9710
2024-02-06T08:19:26.324Z,28.9600
2024-02-06T08:20:28.538Z,28.9080
2024-02-06T08:21:30.716Z,28.9040
2024-02-06T08:22:30.887Z,28.8630
2024-02-06T08:23:33.068Z,28.8520
2024-02-06T08:24:35.297Z,28.8150
2024-02-06T08:25:37.548Z,28.8000
2024-02-06T08:26:39.755Z,28.7710
2024-02-06T08:27:39.817Z,28.7400
2024-02-06T08:28:42.099Z,28.7250
2024-02-06T08:29:44.269Z,28.7260
2024-02-06T08:30:46.489Z,28.7100
2024-02-06T08:31:48.849Z,28.6380
2024-02-06T08:32:51.001Z,28.5250
2024-02-06T08:33:53.182Z,28.5060
2024-02-06T08:34:55.520Z,28.4840
2024-02-06T08:35:57.810Z,28.5100
2024-02-06T08:36:57.791Z,28.5970
2024-02-06T08:38:00.028Z,28.4580
2024-02-06T08:39:02.306Z,28.4110
2024-02-06T08:40:04.450Z,28.3120
2024-02-06T08:41:06.606Z,28.2280
2024-02-06T08:42:08.827Z,28.0840
2024-02-06T08:43:11.628Z,27.8870
2024-02-06T08:44:13.296Z,27.8530
2024-02-06T08:45:15.426Z,27.8700
2024-02-06T08:46:17.672Z,27.9950
2024-02-06T08:47:19.740Z,28.0730
2024-02-06T08:48:21.958Z,28.1520
2024-02-06T08:49:24.246Z,28.0700
2024-02-06T08:50:26.372Z,28.2280
2024-02-06T08:51:28.530Z,28.2670
2024-02-06T08:52:30.786Z,28.2220
2024-02-06T08:53:32.933Z,28.2690
2024-02-06T08:54:35.173Z,28.1930
2024-02-06T08:55:37.374Z,28.1870
2024-02-06T08:56:37.403Z,28.1820
2024-02-06T08:57:39.606Z,28.1300
2024-02-06T08:58:41.809Z,28.0910
2024-02-06T08:59:44.034Z,28.0650
2024-02-06T09:00:46.253Z,28.0660
2024-02-06T09:01:46.383Z,28.0180
2024-02-06T09:02:48.470Z,28.0310
2024-02-06T09:03:50.650Z,28.0280
2024-02-06T09:04:52.942Z,28.0160
2024-02-06T09:05:55.227Z,27.9680
2024-02-06T09:06:57.412Z,27.9950
2024-02-06T09:07:59.512Z,27.9690
2024-02-06T09:09:01.737Z,27.9420
2024-02-06T09:10:04.019Z,27.9390
2024-02-06T09:11:06.183Z,27.9340
2024-02-06T09:12:06.242Z,27.9180
2024-02-06T09:13:08.438Z,27.9190
2024-02-06T09:14:10.684Z,27.9370
2024-02-06T09:15:12.915Z,27.9280
2024-02-06T09:16:15.104Z,27.9230
2024-02-06T09:17:15.103Z,27.9070
2024-02-06T09:18:17.347Z,27.9140
2024-02-06T09:19:19.528Z,27.8740
2024-02-06T09:20:21.778Z,27.8860
2024-02-06T09:21:23.828Z,27.9140
2024-02-06T09:22:26.064Z,27.9120
2024-02-06T09:23:28.219Z,27.8860
2024-02-06T09:24:30.399Z,27.8920
2024-02-06T09:25:32.660Z,27.9080
2024-02-06T09:26:34.779Z,27.9100
2024-02-06T09:27:37.662Z,27.8990
2024-02-06T09:28:39.126Z,27.8940
2024-02-06T09:29:41.315Z,27.9080
2024-02-06T09:30:43.544Z,27.9050
2024-02-06T09:31:45.712Z,27.8890
2024-02-06T09:32:47.943Z,27.8750
2024-02-06T09:33:48.001Z,27.8440
2024-02-06T09:34:50.230Z,27.8330
2024-02-06T09:35:53.063Z,27.8120
2024-02-06T09:36:54.517Z,27.8290
2024-02-06T09:37:56.717Z,27.8120
2024-02-06T09:38:58.902Z,27.8290
2024-02-06T09:40:01.134Z,27.8070
2024-02-06T09:41:03.542Z,27.7910
2024-02-06T09:42:05.424Z,27.7910
2024-02-06T09:43:08.290Z,27.7810
2024-02-06T09:44:10.930Z,27.7960
2024-02-06T09:45:11.959Z,27.7910
2024-02-06T09:46:14.201Z,27.7960
2024-02-06T09:47:17.434Z,27.7840
2024-02-06T09:48:18.595Z,27.7810
2024-02-06T09:49:20.841Z,27.7700
2024-02-06T09:50:22.906Z,27.7700
2024-02-06T09:51:25.148Z,27.7810
2024-02-06T09:52:27.306Z,27.8120
2024-02-06T09:53:29.464Z,27.8080
2024-02-06T09:54:31.661Z,27.7760
2024-02-06T09:55:33.979Z,27.7790
2024-02-06T09:56:36.102Z,27.7790
2024-02-06T09:57:38.290Z,27.7540
2024-02-06T09:58:40.517Z,27.7760
2024-02-06T09:59:42.670Z,27.7970
2024-02-06T10:00:44.975Z,27.7920
2024-02-06T10:01:47.307Z,27.8030
2024-02-06T10:02:49.417Z,27.8030
2024-02-06T10:03:51.677Z,27.8080
2024-02-06T10:04:54.137Z,27.8140
2024-02-06T10:05:56.150Z,27.8190
2024-02-06T10:06:58.460Z,27.8130
2024-02-06T10:07:58.442Z,27.8190
2024-02-06T10:09:00.690Z,27.8530
2024-02-06T10:10:03.016Z,27.8530
2024-02-06T10:11:05.206Z,27.8800
2024-02-06T10:12:07.471Z,27.8530
2024-02-06T10:13:09.690Z,27.8800
2024-02-06T10:14:11.816Z,27.8640
2024-02-06T10:15:14.008Z,27.8860
2024-02-06T10:16:16.232Z,27.9140
2024-02-06T10:17:18.397Z,27.8960
2024-02-06T10:18:20.608Z,27.8540
2024-02-06T10:19:22.756Z,27.8750
2024-02-06T10:20:24.853Z,27.8180
2024-02-06T10:21:29.260Z,27.8400
2024-02-06T10:22:29.349Z,27.8600
2024-02-06T10:23:31.570Z,27.8630
2024-02-06T10:24:33.845Z,27.8430
2024-02-06T10:25:35.957Z,27.8830
2024-02-06T10:26:38.140Z,27.8250
2024-02-06T10:27:38.263Z,27.8720
2024-02-06T10:28:40.530Z,27.8600
2024-02-06T10:29:42.632Z,27.8880
2024-02-06T10:30:44.836Z,27.8730
2024-02-06T10:31:47.147Z,27.8280
2024-02-06T10:32:49.223Z,27.8080
2024-02-06T10:33:51.566Z,27.7980
2024-02-06T10:34:53.689Z,27.8050
2024-02-06T10:35:55.857Z,27.8130
2024-02-06T10:36:58.088Z,27.7480
2024-02-06T10:38:00.337Z,27.7700
2024-02-06T10:39:02.364Z,27.7700
2024-02-06T10:40:04.578Z,27.7680
2024-02-06T10:41:17.169Z,27.7520
2024-02-06T10:42:37.318Z,27.7730
2024-02-06T10:43:37.629Z,27.7640
2024-02-06T10:44:13.193Z,27.7280
2024-02-06T10:45:16.075Z,27.7450
2024-02-06T10:46:18.138Z,27.7550
2024-02-06T10:47:19.640Z,27.7070
2024-02-06T10:48:21.937Z,27.6710
2024-02-06T10:49:24.122Z,27.6890
2024-02-06T10:50:26.342Z,27.7270
2024-02-06T10:51:30.060Z,27.7090
2024-02-06T10:52:30.638Z,27.7540
2024-02-06T10:53:32.848Z,27.7070
2024-02-06T10:54:32.866Z,27.7650
2024-02-06T10:55:35.106Z,27.7760
2024-02-06T10:56:37.257Z,27.7700
2024-02-06T10:57:39.431Z,27.7820
2024-02-06T10:58:41.728Z,27.7650
2024-02-06T10:59:43.746Z,27.7930
2024-02-06T11:00:45.920Z,27.7880
2024-02-06T11:01:48.062Z,27.7760
2024-02-06T11:02:50.165Z,27.7430
2024-02-06T11:03:52.410Z,27.7880
2024-02-06T11:04:54.496Z,27.8000
2024-02-06T11:05:56.702Z,27.7940
2024-02-06T11:06:58.862Z,27.7790
2024-02-06T11:08:00.963Z,27.7850
2024-02-06T11:09:03.096Z,27.7870
2024-02-06T11:10:05.202Z,27.7720
2024-02-06T11:11:07.309Z,27.7900
2024-02-06T11:12:09.921Z,27.7900
2024-02-06T11:13:11.656Z,27.8070
2024-02-06T11:14:13.811Z,27.7840
2024-02-06T11:15:15.937Z,27.7910
2024-02-06T11:16:18.096Z,27.7960
2024-02-06T11:17:20.180Z,27.7880
2024-02-06T11:18:22.452Z,27.7990
2024-02-06T11:19:24.732Z,27.7840
2024-02-06T11:20:24.574Z,27.8200
2024-02-06T11:21:28.837Z,27.8090
2024-02-06T11:22:28.849Z,27.8090
2024-02-06T11:23:30.946Z,27.8280
2024-02-06T11:24:33.147Z,27.8200
2024-02-06T11:25:35.297Z,27.8130
2024-02-06T11:26:37.459Z,27.8180
2024-02-06T11:27:39.609Z,27.8160
2024-02-06T11:28:41.867Z,27.8350
2024-02-06T11:29:44.055Z,27.8370
2024-02-06T11:30:46.277Z,27.8090
2024-02-06T11:31:48.549Z,27.8540
2024-02-06T11:32:50.712Z,27.8440
2024-02-06T11:33:52.941Z,27.8940
2024-02-06T11:34:55.237Z,27.8590
2024-02-06T11:35:57.304Z,27.9110
2024-02-06T11:36:59.522Z,27.9220
2024-02-06T11:38:01.704Z,27.9410
2024-02-06T11:39:03.926Z,27.9380
2024-02-06T11:40:06.137Z,27.9670
2024-02-06T11:41:08.121Z,27.9840
2024-02-06T11:42:10.180Z,27.9060
2024-02-06T11:43:12.280Z,28.0180
2024-02-06T11:44:14.318Z,28.0450
2024-02-06T11:45:16.440Z,28.1140
2024-02-06T11:46:18.493Z,28.1400
2024-02-06T11:47:20.569Z,28.1910
2024-02-06T11:48:23.724Z,28.1800
2024-02-06T11:49:25.130Z,28.2200
2024-02-06T11:50:28.311Z,28.2220
2024-02-06T11:51:29.219Z,28.2040
2024-02-06T11:52:31.387Z,28.1900
2024-02-06T11:53:33.564Z,28.2300
2024-02-06T11:54:35.696Z,28.2410
2024-02-06T11:55:38.110Z,28.2450
2024-02-06T11:56:40.017Z,28.2590
2024-02-06T11:57:40.063Z,28.2730
2024-02-06T11:58:42.266Z,28.2720
2024-02-06T11:59:44.398Z,28.2660
2024-02-06T12:00:46.681Z,28.3220
2024-02-06T12:01:48.835Z,28.3740
2024-02-06T12:02:50.956Z,28.3740
2024-02-06T12:03:53.179Z,28.3370
2024-02-06T12:04:55.393Z,28.3190
2024-02-06T12:05:57.732Z,28.2420
2024-02-06T12:06:59.826Z,28.2210
2024-02-06T12:08:04.687Z,28.1820
2024-02-06T12:09:04.315Z,28.1670
2024-02-06T12:10:07.026Z,28.1720
2024-02-06T12:11:10.080Z,28.1570
2024-02-06T12:12:10.855Z,28.1510
2024-02-06T12:13:13.190Z,28.1680
2024-02-06T12:14:15.203Z,28.1300
2024-02-06T12:15:17.431Z,28.1240
2024-02-06T12:16:19.747Z,28.1590
2024-02-06T12:17:21.865Z,28.1220
2024-02-06T12:18:24.059Z,28.2730
2024-02-06T12:19:26.356Z,28.2220
2024-02-06T12:20:28.536Z,28.3150
2024-02-06T12:21:30.720Z,28.2650
2024-02-06T12:22:30.814Z,28.3910
2024-02-06T12:23:32.982Z,28.4600
2024-02-06T12:24:35.213Z,28.5230
2024-02-06T12:25:37.445Z,28.5560
2024-02-06T12:26:39.672Z,28.4970
2024-02-06T12:27:39.652Z,28.5430
2024-02-06T12:28:41.878Z,28.5560
2024-02-06T12:29:44.022Z,28.6500
2024-02-06T12:30:46.242Z,28.5620
2024-02-06T12:31:48.553Z,28.6250